sensor_id;sensor_type;location;lat;lon;timestamp;P1;durP1;ratioP1;P2;durP2;ratioP2
43801;SDS011;29429;51.074;13.764;2023-04-19T00:02:14;17.73;;;11.20;;
43801;SDS011;29429;51.074;13.764;2023-04-19T00:04:42;19.63;;;11.50;;
43801;SDS011;29429;51.074;13.764;2023-04-19T00:07:13;16.92;;;10.00;;
43801;SDS011;29429;51.074;13.764;2023-04-19T00:09:40;14.23;;;10.10;;
43801;SDS011;29429;51.074;13.764;2023-04-19T00:12:07;15.70;;;10.20;;
43801;SDS011;29429;51.074;13.764;2023-04-19T00:14:35;15.95;;;9.55;;
43801;SDS011;29429;51.074;13.764;2023-04-19T00:17:02;15.05;;;9.10;;
43801;SDS011;29429;51.074;13.764;2023-04-19T00:19:29;15.80;;;9.57;;
43801;SDS011;29429;51.074;13.764;2023-04-19T00:21:57;14.55;;;9.18;;
43801;SDS011;29429;51.074;13.764;2023-04-19T00:24:24;11.50;;;8.80;;
43801;SDS011;29429;51.074;13.764;2023-04-19T00:26:51;14.18;;;8.70;;
43801;SDS011;29429;51.074;13.764;2023-04-19T00:29:19;14.98;;;9.00;;
43801;SDS011;29429;51.074;13.764;2023-04-19T00:31:46;11.63;;;8.57;;
43801;SDS011;29429;51.074;13.764;2023-04-19T00:34:14;11.85;;;8.00;;
43801;SDS011;29429;51.074;13.764;2023-04-19T00:36:42;11.23;;;7.78;;
43801;SDS011;29429;51.074;13.764;2023-04-19T00:39:10;11.63;;;7.15;;
43801;SDS011;29429;51.074;13.764;2023-04-19T00:41:38;12.00;;;7.80;;
43801;SDS011;29429;51.074;13.764;2023-04-19T00:44:05;10.10;;;7.53;;
43801;SDS011;29429;51.074;13.764;2023-04-19T00:46:32;10.32;;;7.30;;
43801;SDS011;29429;51.074;13.764;2023-04-19T00:49:01;12.50;;;7.25;;
43801;SDS011;29429;51.074;13.764;2023-04-19T00:51:31;11.82;;;8.30;;
43801;SDS011;29429;51.074;13.764;2023-04-19T00:53:59;12.07;;;6.82;;
43801;SDS011;29429;51.074;13.764;2023-04-19T00:56:28;10.82;;;8.00;;
43801;SDS011;29429;51.074;13.764;2023-04-19T00:58:56;15.20;;;8.00;;
43801;SDS011;29429;51.074;13.764;2023-04-19T01:01:24;12.10;;;7.28;;
43801;SDS011;29429;51.074;13.764;2023-04-19T01:03:52;12.77;;;6.70;;
43801;SDS011;29429;51.074;13.764;2023-04-19T01:06:20;11.82;;;7.70;;
43801;SDS011;29429;51.074;13.764;2023-04-19T01:08:47;7.72;;;6.45;;
43801;SDS011;29429;51.074;13.764;2023-04-19T01:11:14;12.25;;;7.85;;
43801;SDS011;29429;51.074;13.764;2023-04-19T01:13:43;12.20;;;7.50;;
43801;SDS011;29429;51.074;13.764;2023-04-19T01:16:10;12.25;;;7.78;;
43801;SDS011;29429;51.074;13.764;2023-04-19T01:18:38;16.13;;;7.97;;
43801;SDS011;29429;51.074;13.764;2023-04-19T01:21:06;14.88;;;7.82;;
43801;SDS011;29429;51.074;13.764;2023-04-19T01:23:34;10.05;;;7.18;;
43801;SDS011;29429;51.074;13.764;2023-04-19T01:26:02;11.75;;;7.72;;
43801;SDS011;29429;51.074;13.764;2023-04-19T01:28:29;16.48;;;8.85;;
43801;SDS011;29429;51.074;13.764;2023-04-19T01:30:57;11.70;;;8.02;;
43801;SDS011;29429;51.074;13.764;2023-04-19T01:33:24;11.13;;;8.07;;
43801;SDS011;29429;51.074;13.764;2023-04-19T01:35:52;11.93;;;8.00;;
43801;SDS011;29429;51.074;13.764;2023-04-19T01:38:19;12.02;;;8.18;;
43801;SDS011;29429;51.074;13.764;2023-04-19T01:40:47;10.77;;;7.20;;
43801;SDS011;29429;51.074;13.764;2023-04-19T01:43:15;10.48;;;6.43;;
43801;SDS011;29429;51.074;13.764;2023-04-19T01:45:43;11.82;;;8.05;;
43801;SDS011;29429;51.074;13.764;2023-04-19T01:48:11;11.82;;;7.53;;
43801;SDS011;29429;51.074;13.764;2023-04-19T01:50:39;11.63;;;7.43;;
43801;SDS011;29429;51.074;13.764;2023-04-19T01:53:06;10.13;;;6.88;;
43801;SDS011;29429;51.074;13.764;2023-04-19T01:55:33;11.40;;;7.47;;
43801;SDS011;29429;51.074;13.764;2023-04-19T01:58:01;11.88;;;7.72;;
43801;SDS011;29429;51.074;13.764;2023-04-19T02:00:28;13.50;;;7.72;;
43801;SDS011;29429;51.074;13.764;2023-04-19T02:02:56;10.65;;;7.38;;
43801;SDS011;29429;51.074;13.764;2023-04-19T02:05:24;14.10;;;7.78;;
43801;SDS011;29429;51.074;13.764;2023-04-19T02:07:52;14.63;;;8.30;;
43801;SDS011;29429;51.074;13.764;2023-04-19T02:10:19;15.90;;;7.75;;
43801;SDS011;29429;51.074;13.764;2023-04-19T02:12:47;11.85;;;8.13;;
43801;SDS011;29429;51.074;13.764;2023-04-19T02:15:14;14.10;;;7.78;;
43801;SDS011;29429;51.074;13.764;2023-04-19T02:17:41;13.25;;;7.70;;
43801;SDS011;29429;51.074;13.764;2023-04-19T02:20:09;11.68;;;7.70;;
43801;SDS011;29429;51.074;13.764;2023-04-19T02:22:36;14.80;;;8.57;;
43801;SDS011;29429;51.074;13.764;2023-04-19T02:25:04;11.68;;;7.80;;
43801;SDS011;29429;51.074;13.764;2023-04-19T02:27:32;11.38;;;8.07;;
43801;SDS011;29429;51.074;13.764;2023-04-19T02:29:59;14.63;;;8.27;;
43801;SDS011;29429;51.074;13.764;2023-04-19T02:32:28;10.25;;;7.32;;
43801;SDS011;29429;51.074;13.764;2023-04-19T02:34:57;12.82;;;8.43;;
43801;SDS011;29429;51.074;13.764;2023-04-19T02:37:24;16.20;;;8.68;;
43801;SDS011;29429;51.074;13.764;2023-04-19T02:39:55;12.93;;;7.88;;
43801;SDS011;29429;51.074;13.764;2023-04-19T02:42:22;12.27;;;8.32;;
43801;SDS011;29429;51.074;13.764;2023-04-19T02:44:52;11.98;;;7.57;;
43801;SDS011;29429;51.074;13.764;2023-04-19T02:47:22;13.43;;;7.95;;
43801;SDS011;29429;51.074;13.764;2023-04-19T02:49:50;11.00;;;7.93;;
43801;SDS011;29429;51.074;13.764;2023-04-19T02:52:18;12.05;;;8.50;;
43801;SDS011;29429;51.074;13.764;2023-04-19T02:54:45;13.10;;;8.60;;
43801;SDS011;29429;51.074;13.764;2023-04-19T02:57:13;12.05;;;8.50;;
43801;SDS011;29429;51.074;13.764;2023-04-19T02:59:42;12.25;;;8.43;;
43801;SDS011;29429;51.074;13.764;2023-04-19T03:02:09;13.18;;;8.73;;
43801;SDS011;29429;51.074;13.764;2023-04-19T03:04:36;13.63;;;9.13;;
43801;SDS011;29429;51.074;13.764;2023-04-19T03:07:05;11.82;;;8.57;;
43801;SDS011;29429;51.074;13.764;2023-04-19T03:09:34;14.82;;;9.18;;
43801;SDS011;29429;51.074;13.764;2023-04-19T03:12:02;14.18;;;9.18;;
43801;SDS011;29429;51.074;13.764;2023-04-19T03:14:30;13.98;;;9.48;;
43801;SDS011;29429;51.074;13.764;2023-04-19T03:16:59;16.88;;;10.25;;
43801;SDS011;29429;51.074;13.764;2023-04-19T03:19:27;20.90;;;10.38;;
43801;SDS011;29429;51.074;13.764;2023-04-19T03:21:54;17.95;;;10.45;;
43801;SDS011;29429;51.074;13.764;2023-04-19T03:24:28;19.13;;;11.10;;
43801;SDS011;29429;51.074;13.764;2023-04-19T03:26:59;15.98;;;10.70;;
43801;SDS011;29429;51.074;13.764;2023-04-19T03:29:29;20.90;;;11.70;;
43801;SDS011;29429;51.074;13.764;2023-04-19T03:32:03;16.70;;;11.57;;
43801;SDS011;29429;51.074;13.764;2023-04-19T03:34:30;17.45;;;11.40;;
43801;SDS011;29429;51.074;13.764;2023-04-19T03:36:58;19.25;;;12.40;;
43801;SDS011;29429;51.074;13.764;2023-04-19T03:39:25;17.05;;;12.25;;
43801;SDS011;29429;51.074;13.764;2023-04-19T03:41:59;19.17;;;12.02;;
43801;SDS011;29429;51.074;13.764;2023-04-19T03:44:59;18.40;;;12.05;;
43801;SDS011;29429;51.074;13.764;2023-04-19T03:47:28;19.40;;;11.75;;
43801;SDS011;29429;51.074;13.764;2023-04-19T03:49:57;22.52;;;12.32;;
43801;SDS011;29429;51.074;13.764;2023-04-19T03:52:25;18.17;;;12.85;;
43801;SDS011;29429;51.074;13.764;2023-04-19T03:54:52;20.35;;;12.00;;
43801;SDS011;29429;51.074;13.764;2023-04-19T03:57:38;21.08;;;12.35;;
43801;SDS011;29429;51.074;13.764;2023-04-19T04:00:18;20.55;;;12.65;;
43801;SDS011;29429;51.074;13.764;2023-04-19T04:02:52;22.03;;;12.57;;
43801;SDS011;29429;51.074;13.764;2023-04-19T04:05:20;18.65;;;12.65;;
43801;SDS011;29429;51.074;13.764;2023-04-19T04:07:48;19.83;;;13.18;;
43801;SDS011;29429;51.074;13.764;2023-04-19T04:10:16;20.20;;;13.60;;
43801;SDS011;29429;51.074;13.764;2023-04-19T04:12:44;19.77;;;11.57;;
43801;SDS011;29429;51.074;13.764;2023-04-19T04:15:18;22.35;;;12.00;;
43801;SDS011;29429;51.074;13.764;2023-04-19T04:17:51;20.70;;;11.30;;
43801;SDS011;29429;51.074;13.764;2023-04-19T04:20:19;19.33;;;11.70;;
43801;SDS011;29429;51.074;13.764;2023-04-19T04:22:49;16.83;;;10.30;;
43801;SDS011;29429;51.074;13.764;2023-04-19T04:25:18;16.27;;;10.40;;
43801;SDS011;29429;51.074;13.764;2023-04-19T04:27:52;14.35;;;9.68;;
43801;SDS011;29429;51.074;13.764;2023-04-19T04:30:21;15.65;;;10.18;;
43801;SDS011;29429;51.074;13.764;2023-04-19T04:32:53;14.52;;;9.02;;
43801;SDS011;29429;51.074;13.764;2023-04-19T04:35:23;14.63;;;8.77;;
43801;SDS011;29429;51.074;13.764;2023-04-19T04:37:57;14.82;;;9.02;;
43801;SDS011;29429;51.074;13.764;2023-04-19T04:40:25;17.90;;;8.80;;
43801;SDS011;29429;51.074;13.764;2023-04-19T04:42:53;15.82;;;9.40;;
43801;SDS011;29429;51.074;13.764;2023-04-19T04:45:36;16.05;;;8.60;;
43801;SDS011;29429;51.074;13.764;2023-04-19T04:48:31;12.23;;;7.32;;
43801;SDS011;29429;51.074;13.764;2023-04-19T04:50:59;10.63;;;6.70;;
43801;SDS011;29429;51.074;13.764;2023-04-19T04:53:27;10.93;;;6.22;;
43801;SDS011;29429;51.074;13.764;2023-04-19T04:55:55;10.48;;;6.10;;
43801;SDS011;29429;51.074;13.764;2023-04-19T04:58:23;12.10;;;5.90;;
43801;SDS011;29429;51.074;13.764;2023-04-19T05:00:59;10.93;;;6.55;;
43801;SDS011;29429;51.074;13.764;2023-04-19T05:03:27;12.73;;;7.53;;
43801;SDS011;29429;51.074;13.764;2023-04-19T05:05:57;11.48;;;6.50;;
43801;SDS011;29429;51.074;13.764;2023-04-19T05:08:25;10.82;;;6.38;;
43801;SDS011;29429;51.074;13.764;2023-04-19T05:10:58;16.08;;;7.75;;
43801;SDS011;29429;51.074;13.764;2023-04-19T05:13:28;15.18;;;6.97;;
43801;SDS011;29429;51.074;13.764;2023-04-19T05:15:58;10.60;;;6.32;;
43801;SDS011;29429;51.074;13.764;2023-04-19T05:18:25;11.15;;;5.75;;
43801;SDS011;29429;51.074;13.764;2023-04-19T05:20:53;15.68;;;5.18;;
43801;SDS011;29429;51.074;13.764;2023-04-19T05:23:25;9.63;;;5.15;;
43801;SDS011;29429;51.074;13.764;2023-04-19T05:25:53;7.32;;;4.93;;
43801;SDS011;29429;51.074;13.764;2023-04-19T05:28:22;10.85;;;4.75;;
43801;SDS011;29429;51.074;13.764;2023-04-19T05:31:04;6.95;;;3.97;;
43801;SDS011;29429;51.074;13.764;2023-04-19T05:33:40;5.15;;;3.58;;
43801;SDS011;29429;51.074;13.764;2023-04-19T05:36:11;6.25;;;3.45;;
43801;SDS011;29429;51.074;13.764;2023-04-19T05:38:38;6.55;;;3.25;;
43801;SDS011;29429;51.074;13.764;2023-04-19T05:41:05;5.78;;;3.17;;
43801;SDS011;29429;51.074;13.764;2023-04-19T05:43:33;6.38;;;3.55;;
43801;SDS011;29429;51.074;13.764;2023-04-19T05:46:01;9.23;;;3.58;;
43801;SDS011;29429;51.074;13.764;2023-04-19T05:48:28;8.05;;;3.35;;
43801;SDS011;29429;51.074;13.764;2023-04-19T05:51:22;7.88;;;3.38;;
43801;SDS011;29429;51.074;13.764;2023-04-19T05:53:59;7.38;;;3.22;;
43801;SDS011;29429;51.074;13.764;2023-04-19T05:56:27;7.97;;;3.45;;
43801;SDS011;29429;51.074;13.764;2023-04-19T05:58:54;5.22;;;2.70;;
43801;SDS011;29429;51.074;13.764;2023-04-19T06:01:22;6.22;;;3.10;;
43801;SDS011;29429;51.074;13.764;2023-04-19T06:03:50;7.47;;;2.60;;
43801;SDS011;29429;51.074;13.764;2023-04-19T06:06:23;4.93;;;2.80;;
43801;SDS011;29429;51.074;13.764;2023-04-19T06:08:50;4.85;;;2.58;;
43801;SDS011;29429;51.074;13.764;2023-04-19T06:11:20;4.95;;;2.40;;
43801;SDS011;29429;51.074;13.764;2023-04-19T06:13:54;6.07;;;2.50;;
43801;SDS011;29429;51.074;13.764;2023-04-19T06:16:22;8.85;;;4.20;;
43801;SDS011;29429;51.074;13.764;2023-04-19T06:18:49;4.20;;;3.03;;
43801;SDS011;29429;51.074;13.764;2023-04-19T06:21:17;7.18;;;2.45;;
43801;SDS011;29429;51.074;13.764;2023-04-19T06:23:44;5.20;;;3.65;;
43801;SDS011;29429;51.074;13.764;2023-04-19T06:26:11;4.38;;;1.90;;
43801;SDS011;29429;51.074;13.764;2023-04-19T06:28:39;9.27;;;3.15;;
43801;SDS011;29429;51.074;13.764;2023-04-19T06:31:06;5.32;;;2.45;;
43801;SDS011;29429;51.074;13.764;2023-04-19T06:33:34;3.95;;;2.40;;
43801;SDS011;29429;51.074;13.764;2023-04-19T06:36:01;5.78;;;2.60;;
43801;SDS011;29429;51.074;13.764;2023-04-19T06:38:29;5.22;;;2.78;;
43801;SDS011;29429;51.074;13.764;2023-04-19T06:40:57;5.82;;;2.42;;
43801;SDS011;29429;51.074;13.764;2023-04-19T06:43:25;8.32;;;2.35;;
43801;SDS011;29429;51.074;13.764;2023-04-19T06:45:56;10.63;;;3.10;;
43801;SDS011;29429;51.074;13.764;2023-04-19T06:51:32;9.25;;;2.10;;
43801;SDS011;29429;51.074;13.764;2023-04-19T06:54:06;8.65;;;2.67;;
43801;SDS011;29429;51.074;13.764;2023-04-19T06:59:18;4.05;;;2.45;;
43801;SDS011;29429;51.074;13.764;2023-04-19T07:02:28;4.80;;;2.33;;
43801;SDS011;29429;51.074;13.764;2023-04-19T07:05:09;7.25;;;3.20;;
43801;SDS011;29429;51.074;13.764;2023-04-19T07:08:21;6.97;;;2.40;;
43801;SDS011;29429;51.074;13.764;2023-04-19T07:10:51;6.93;;;2.58;;
43801;SDS011;29429;51.074;13.764;2023-04-19T07:13:19;6.75;;;3.00;;
43801;SDS011;29429;51.074;13.764;2023-04-19T07:15:46;9.68;;;3.47;;
43801;SDS011;29429;51.074;13.764;2023-04-19T07:18:14;8.75;;;2.95;;
43801;SDS011;29429;51.074;13.764;2023-04-19T07:20:41;9.23;;;2.42;;
43801;SDS011;29429;51.074;13.764;2023-04-19T07:23:11;5.55;;;3.00;;
43801;SDS011;29429;51.074;13.764;2023-04-19T07:25:39;4.03;;;2.47;;
43801;SDS011;29429;51.074;13.764;2023-04-19T07:28:06;5.70;;;2.50;;
43801;SDS011;29429;51.074;13.764;2023-04-19T07:30:34;4.60;;;2.60;;
43801;SDS011;29429;51.074;13.764;2023-04-19T07:33:02;4.32;;;2.38;;
43801;SDS011;29429;51.074;13.764;2023-04-19T07:35:30;4.57;;;2.33;;
43801;SDS011;29429;51.074;13.764;2023-04-19T07:37:58;5.80;;;2.33;;
43801;SDS011;29429;51.074;13.764;2023-04-19T07:40:25;3.38;;;2.17;;
43801;SDS011;29429;51.074;13.764;2023-04-19T07:42:53;5.30;;;2.33;;
43801;SDS011;29429;51.074;13.764;2023-04-19T07:45:21;5.75;;;2.20;;
43801;SDS011;29429;51.074;13.764;2023-04-19T07:47:49;5.20;;;2.10;;
43801;SDS011;29429;51.074;13.764;2023-04-19T07:50:17;4.20;;;2.08;;
43801;SDS011;29429;51.074;13.764;2023-04-19T07:52:46;8.15;;;2.70;;
43801;SDS011;29429;51.074;13.764;2023-04-19T07:55:13;3.95;;;2.15;;
43801;SDS011;29429;51.074;13.764;2023-04-19T07:57:40;6.90;;;2.78;;
43801;SDS011;29429;51.074;13.764;2023-04-19T08:00:11;4.90;;;2.30;;
43801;SDS011;29429;51.074;13.764;2023-04-19T08:02:47;4.80;;;2.35;;
43801;SDS011;29429;51.074;13.764;2023-04-19T08:05:27;5.95;;;2.63;;
43801;SDS011;29429;51.074;13.764;2023-04-19T08:07:56;5.13;;;2.30;;
43801;SDS011;29429;51.074;13.764;2023-04-19T08:10:29;7.28;;;2.80;;
43801;SDS011;29429;51.074;13.764;2023-04-19T08:12:59;4.70;;;2.25;;
43801;SDS011;29429;51.074;13.764;2023-04-19T08:15:32;4.88;;;2.03;;
43801;SDS011;29429;51.074;13.764;2023-04-19T08:18:03;2.78;;;2.22;;
43801;SDS011;29429;51.074;13.764;2023-04-19T08:20:33;5.32;;;2.33;;
43801;SDS011;29429;51.074;13.764;2023-04-19T08:23:02;5.93;;;2.67;;
43801;SDS011;29429;51.074;13.764;2023-04-19T08:25:46;5.68;;;2.35;;
43801;SDS011;29429;51.074;13.764;2023-04-19T08:28:14;7.05;;;2.50;;
43801;SDS011;29429;51.074;13.764;2023-04-19T08:30:42;4.95;;;2.47;;
43801;SDS011;29429;51.074;13.764;2023-04-19T08:33:10;5.68;;;2.60;;
43801;SDS011;29429;51.074;13.764;2023-04-19T08:35:38;7.35;;;2.83;;
43801;SDS011;29429;51.074;13.764;2023-04-19T08:38:11;7.30;;;2.70;;
43801;SDS011;29429;51.074;13.764;2023-04-19T08:40:44;6.35;;;2.50;;
43801;SDS011;29429;51.074;13.764;2023-04-19T08:43:15;4.72;;;2.80;;
43801;SDS011;29429;51.074;13.764;2023-04-19T08:45:47;5.35;;;2.63;;
43801;SDS011;29429;51.074;13.764;2023-04-19T08:48:16;5.80;;;2.65;;
43801;SDS011;29429;51.074;13.764;2023-04-19T08:50:44;4.82;;;2.55;;
43801;SDS011;29429;51.074;13.764;2023-04-19T08:53:30;5.82;;;2.97;;
43801;SDS011;29429;51.074;13.764;2023-04-19T08:55:59;5.35;;;2.55;;
43801;SDS011;29429;51.074;13.764;2023-04-19T08:58:31;7.30;;;3.15;;
43801;SDS011;29429;51.074;13.764;2023-04-19T09:01:04;4.43;;;2.35;;
43801;SDS011;29429;51.074;13.764;2023-04-19T09:03:42;9.15;;;2.83;;
43801;SDS011;29429;51.074;13.764;2023-04-19T09:06:28;7.80;;;2.67;;
43801;SDS011;29429;51.074;13.764;2023-04-19T09:09:12;7.85;;;3.25;;
43801;SDS011;29429;51.074;13.764;2023-04-19T09:11:50;4.97;;;2.90;;
43801;SDS011;29429;51.074;13.764;2023-04-19T09:14:18;6.93;;;3.00;;
43801;SDS011;29429;51.074;13.764;2023-04-19T09:16:47;8.43;;;2.83;;
43801;SDS011;29429;51.074;13.764;2023-04-19T09:19:18;5.70;;;2.58;;
43801;SDS011;29429;51.074;13.764;2023-04-19T09:21:50;7.55;;;3.10;;
43801;SDS011;29429;51.074;13.764;2023-04-19T09:24:38;6.28;;;2.90;;
43801;SDS011;29429;51.074;13.764;2023-04-19T09:27:09;5.72;;;2.80;;
43801;SDS011;29429;51.074;13.764;2023-04-19T09:29:37;8.80;;;3.55;;
43801;SDS011;29429;51.074;13.764;2023-04-19T09:32:05;4.65;;;2.53;;
43801;SDS011;29429;51.074;13.764;2023-04-19T09:34:33;6.75;;;2.90;;
43801;SDS011;29429;51.074;13.764;2023-04-19T09:37:12;6.65;;;3.00;;
43801;SDS011;29429;51.074;13.764;2023-04-19T09:39:59;7.57;;;3.22;;
43801;SDS011;29429;51.074;13.764;2023-04-19T09:42:46;5.95;;;3.13;;
43801;SDS011;29429;51.074;13.764;2023-04-19T09:45:18;7.93;;;3.08;;
43801;SDS011;29429;51.074;13.764;2023-04-19T09:47:59;6.43;;;3.35;;
43801;SDS011;29429;51.074;13.764;2023-04-19T09:50:29;4.80;;;2.55;;
43801;SDS011;29429;51.074;13.764;2023-04-19T09:52:59;8.73;;;3.17;;
43801;SDS011;29429;51.074;13.764;2023-04-19T09:55:27;4.65;;;2.65;;
43801;SDS011;29429;51.074;13.764;2023-04-19T09:58:10;5.85;;;2.60;;
43801;SDS011;29429;51.074;13.764;2023-04-19T10:00:38;6.65;;;2.50;;
43801;SDS011;29429;51.074;13.764;2023-04-19T10:03:15;13.98;;;3.20;;
43801;SDS011;29429;51.074;13.764;2023-04-19T10:05:44;8.70;;;2.63;;
43801;SDS011;29429;51.074;13.764;2023-04-19T10:08:12;7.28;;;2.75;;
43801;SDS011;29429;51.074;13.764;2023-04-19T10:10:40;5.25;;;2.78;;
43801;SDS011;29429;51.074;13.764;2023-04-19T10:13:11;5.35;;;2.50;;
43801;SDS011;29429;51.074;13.764;2023-04-19T10:15:41;4.15;;;2.50;;
43801;SDS011;29429;51.074;13.764;2023-04-19T10:18:19;9.93;;;2.70;;
43801;SDS011;29429;51.074;13.764;2023-04-19T10:20:57;7.07;;;3.38;;
43801;SDS011;29429;51.074;13.764;2023-04-19T10:23:34;5.95;;;2.78;;
43801;SDS011;29429;51.074;13.764;2023-04-19T10:26:20;5.32;;;2.70;;
43801;SDS011;29429;51.074;13.764;2023-04-19T10:28:48;6.22;;;2.65;;
43801;SDS011;29429;51.074;13.764;2023-04-19T10:31:18;8.82;;;2.90;;
43801;SDS011;29429;51.074;13.764;2023-04-19T10:33:49;4.05;;;2.45;;
43801;SDS011;29429;51.074;13.764;2023-04-19T10:36:17;7.85;;;2.70;;
43801;SDS011;29429;51.074;13.764;2023-04-19T10:39:03;4.22;;;2.50;;
43801;SDS011;29429;51.074;13.764;2023-04-19T10:42:08;6.55;;;2.70;;
43801;SDS011;29429;51.074;13.764;2023-04-19T10:44:37;10.02;;;2.90;;
43801;SDS011;29429;51.074;13.764;2023-04-19T10:47:05;4.28;;;2.60;;
43801;SDS011;29429;51.074;13.764;2023-04-19T10:49:45;5.75;;;2.60;;
43801;SDS011;29429;51.074;13.764;2023-04-19T10:52:25;4.32;;;2.20;;
43801;SDS011;29429;51.074;13.764;2023-04-19T10:54:55;4.20;;;2.75;;
43801;SDS011;29429;51.074;13.764;2023-04-19T10:57:22;4.90;;;2.58;;
43801;SDS011;29429;51.074;13.764;2023-04-19T11:02:43;6.65;;;2.85;;
43801;SDS011;29429;51.074;13.764;2023-04-19T11:05:11;5.28;;;2.50;;
43801;SDS011;29429;51.074;13.764;2023-04-19T11:07:39;6.32;;;2.53;;
43801;SDS011;29429;51.074;13.764;2023-04-19T11:10:07;3.50;;;2.30;;
43801;SDS011;29429;51.074;13.764;2023-04-19T11:12:40;4.53;;;2.58;;
43801;SDS011;29429;51.074;13.764;2023-04-19T11:15:18;8.73;;;2.53;;
43801;SDS011;29429;51.074;13.764;2023-04-19T11:17:49;4.75;;;2.63;;
43801;SDS011;29429;51.074;13.764;2023-04-19T11:20:37;7.68;;;2.50;;
43801;SDS011;29429;51.074;13.764;2023-04-19T11:23:14;6.35;;;2.38;;
43801;SDS011;29429;51.074;13.764;2023-04-19T11:25:43;2.90;;;1.90;;
43801;SDS011;29429;51.074;13.764;2023-04-19T11:28:14;3.80;;;2.22;;
43801;SDS011;29429;51.074;13.764;2023-04-19T11:30:43;5.00;;;1.98;;
43801;SDS011;29429;51.074;13.764;2023-04-19T11:33:11;7.10;;;2.40;;
43801;SDS011;29429;51.074;13.764;2023-04-19T11:35:39;4.72;;;2.65;;
43801;SDS011;29429;51.074;13.764;2023-04-19T11:38:14;5.88;;;2.72;;
43801;SDS011;29429;51.074;13.764;2023-04-19T11:40:42;7.00;;;2.30;;
43801;SDS011;29429;51.074;13.764;2023-04-19T11:43:10;4.75;;;2.35;;
43801;SDS011;29429;51.074;13.764;2023-04-19T11:45:38;7.60;;;2.70;;
43801;SDS011;29429;51.074;13.764;2023-04-19T11:48:12;4.20;;;2.40;;
43801;SDS011;29429;51.074;13.764;2023-04-19T11:50:43;5.28;;;2.60;;
43801;SDS011;29429;51.074;13.764;2023-04-19T11:53:15;7.13;;;2.90;;
43801;SDS011;29429;51.074;13.764;2023-04-19T11:55:43;4.38;;;2.47;;
43801;SDS011;29429;51.074;13.764;2023-04-19T12:00:57;7.18;;;2.53;;
43801;SDS011;29429;51.074;13.764;2023-04-19T12:03:46;3.17;;;2.10;;
43801;SDS011;29429;51.074;13.764;2023-04-19T12:06:28;4.63;;;2.30;;
43801;SDS011;29429;51.074;13.764;2023-04-19T12:08:59;4.65;;;2.30;;
43801;SDS011;29429;51.074;13.764;2023-04-19T12:11:43;7.03;;;2.42;;
43801;SDS011;29429;51.074;13.764;2023-04-19T12:17:27;6.57;;;2.38;;
43801;SDS011;29429;51.074;13.764;2023-04-19T12:19:54;5.88;;;2.30;;
43801;SDS011;29429;51.074;13.764;2023-04-19T12:22:22;4.60;;;2.30;;
43801;SDS011;29429;51.074;13.764;2023-04-19T12:24:50;8.60;;;2.05;;
43801;SDS011;29429;51.074;13.764;2023-04-19T12:27:18;6.78;;;2.95;;
43801;SDS011;29429;51.074;13.764;2023-04-19T12:29:46;4.63;;;2.67;;
43801;SDS011;29429;51.074;13.764;2023-04-19T12:32:13;7.82;;;3.00;;
43801;SDS011;29429;51.074;13.764;2023-04-19T12:34:41;9.75;;;4.07;;
43801;SDS011;29429;51.074;13.764;2023-04-19T12:37:08;8.05;;;2.55;;
43801;SDS011;29429;51.074;13.764;2023-04-19T12:39:36;8.43;;;3.20;;
43801;SDS011;29429;51.074;13.764;2023-04-19T12:42:03;5.15;;;2.72;;
43801;SDS011;29429;51.074;13.764;2023-04-19T12:44:31;3.40;;;2.40;;
43801;SDS011;29429;51.074;13.764;2023-04-19T12:46:58;3.33;;;2.13;;
43801;SDS011;29429;51.074;13.764;2023-04-19T12:49:26;6.88;;;2.65;;
43801;SDS011;29429;51.074;13.764;2023-04-19T12:51:54;4.43;;;2.50;;
43801;SDS011;29429;51.074;13.764;2023-04-19T12:54:22;4.88;;;2.40;;
43801;SDS011;29429;51.074;13.764;2023-04-19T12:56:51;7.30;;;2.97;;
43801;SDS011;29429;51.074;13.764;2023-04-19T12:59:18;5.57;;;2.63;;
43801;SDS011;29429;51.074;13.764;2023-04-19T13:01:58;7.53;;;2.80;;
43801;SDS011;29429;51.074;13.764;2023-04-19T13:04:26;8.75;;;2.85;;
43801;SDS011;29429;51.074;13.764;2023-04-19T13:06:53;3.88;;;2.70;;
43801;SDS011;29429;51.074;13.764;2023-04-19T13:09:21;7.20;;;2.80;;
43801;SDS011;29429;51.074;13.764;2023-04-19T13:11:51;4.10;;;2.70;;
43801;SDS011;29429;51.074;13.764;2023-04-19T13:14:20;4.03;;;2.75;;
43801;SDS011;29429;51.074;13.764;2023-04-19T13:16:47;5.75;;;3.10;;
43801;SDS011;29429;51.074;13.764;2023-04-19T13:19:14;8.35;;;2.88;;
43801;SDS011;29429;51.074;13.764;2023-04-19T13:21:42;7.28;;;3.28;;
43801;SDS011;29429;51.074;13.764;2023-04-19T13:24:10;6.28;;;2.90;;
43801;SDS011;29429;51.074;13.764;2023-04-19T13:26:39;8.13;;;3.10;;
43801;SDS011;29429;51.074;13.764;2023-04-19T13:29:06;7.10;;;2.85;;
43801;SDS011;29429;51.074;13.764;2023-04-19T13:31:34;3.95;;;2.67;;
43801;SDS011;29429;51.074;13.764;2023-04-19T13:34:01;10.90;;;2.90;;
43801;SDS011;29429;51.074;13.764;2023-04-19T13:36:28;6.82;;;3.30;;
43801;SDS011;29429;51.074;13.764;2023-04-19T13:38:56;4.72;;;2.40;;
43801;SDS011;29429;51.074;13.764;2023-04-19T13:41:25;8.05;;;3.05;;
43801;SDS011;29429;51.074;13.764;2023-04-19T13:43:52;6.20;;;3.78;;
43801;SDS011;29429;51.074;13.764;2023-04-19T13:46:19;7.68;;;4.80;;
43801;SDS011;29429;51.074;13.764;2023-04-19T13:48:47;9.00;;;4.43;;
43801;SDS011;29429;51.074;13.764;2023-04-19T13:51:43;8.23;;;4.18;;
43801;SDS011;29429;51.074;13.764;2023-04-19T13:54:42;9.55;;;4.55;;
43801;SDS011;29429;51.074;13.764;2023-04-19T13:57:10;8.93;;;3.97;;
43801;SDS011;29429;51.074;13.764;2023-04-19T13:59:38;11.55;;;3.95;;
43801;SDS011;29429;51.074;13.764;2023-04-19T14:02:05;6.45;;;3.80;;
43801;SDS011;29429;51.074;13.764;2023-04-19T14:04:33;6.63;;;3.60;;
43801;SDS011;29429;51.074;13.764;2023-04-19T14:07:00;6.55;;;3.45;;
43801;SDS011;29429;51.074;13.764;2023-04-19T14:09:28;7.22;;;3.63;;
43801;SDS011;29429;51.074;13.764;2023-04-19T14:11:58;4.72;;;2.85;;
43801;SDS011;29429;51.074;13.764;2023-04-19T14:14:27;9.15;;;3.50;;
43801;SDS011;29429;51.074;13.764;2023-04-19T14:16:57;7.00;;;3.55;;
43801;SDS011;29429;51.074;13.764;2023-04-19T14:19:25;6.32;;;3.15;;
43801;SDS011;29429;51.074;13.764;2023-04-19T14:21:52;7.82;;;3.58;;
43801;SDS011;29429;51.074;13.764;2023-04-19T14:24:20;6.65;;;3.80;;
43801;SDS011;29429;51.074;13.764;2023-04-19T14:26:48;6.53;;;3.78;;
43801;SDS011;29429;51.074;13.764;2023-04-19T14:29:47;11.02;;;3.97;;
43801;SDS011;29429;51.074;13.764;2023-04-19T14:32:14;6.32;;;4.05;;
43801;SDS011;29429;51.074;13.764;2023-04-19T14:34:52;6.65;;;3.58;;
43801;SDS011;29429;51.074;13.764;2023-04-19T14:37:20;8.55;;;4.35;;
43801;SDS011;29429;51.074;13.764;2023-04-19T14:39:49;12.32;;;4.35;;
43801;SDS011;29429;51.074;13.764;2023-04-19T14:46:28;7.30;;;4.47;;
43801;SDS011;29429;51.074;13.764;2023-04-19T14:48:55;7.25;;;4.60;;
43801;SDS011;29429;51.074;13.764;2023-04-19T14:51:28;7.00;;;3.67;;
43801;SDS011;29429;51.074;13.764;2023-04-19T14:53:59;3.85;;;2.78;;
43801;SDS011;29429;51.074;13.764;2023-04-19T14:56:27;4.47;;;2.60;;
43801;SDS011;29429;51.074;13.764;2023-04-19T14:58:54;5.88;;;3.20;;
43801;SDS011;29429;51.074;13.764;2023-04-19T15:01:22;4.25;;;3.22;;
43801;SDS011;29429;51.074;13.764;2023-04-19T15:03:49;4.88;;;2.92;;
43801;SDS011;29429;51.074;13.764;2023-04-19T15:06:17;4.28;;;2.92;;
43801;SDS011;29429;51.074;13.764;2023-04-19T15:08:44;5.78;;;3.00;;